createdAt,value
2023-05-09T00:00:06.201Z,100451.28
2023-05-09T00:05:09.823Z,100449.91
2023-05-09T00:10:11.185Z,100447.88
2023-05-09T00:15:13.005Z,100451.63
2023-05-09T00:20:14.624Z,100443.22
2023-05-09T00:25:16.183Z,100427.38
2023-05-09T00:30:17.708Z,100426.03
2023-05-09T00:35:19.338Z,100433.28
2023-05-09T00:40:20.721Z,100432.41
2023-05-09T00:45:22.056Z,100411.22
2023-05-09T00:50:26.203Z,100409.50
2023-05-09T00:55:27.649Z,100397.91
2023-05-09T01:00:29.417Z,100400.78
2023-05-09T01:05:43.619Z,100393.53
2023-05-09T01:11:03.993Z,100390.69
2023-05-09T01:16:29.581Z,100388.16
2023-05-09T01:21:32.315Z,100383.44
2023-05-09T01:26:43.165Z,100379.59
2023-05-09T01:31:46.158Z,100368.31
2023-05-09T01:36:51.084Z,100376.22
2023-05-09T01:41:55.084Z,100383.09
2023-05-09T01:46:58.878Z,100370.50
2023-05-09T01:52:03.606Z,100370.34
2023-05-09T01:57:07.608Z,100361.09
2023-05-09T02:02:09.665Z,100354.19
2023-05-09T02:07:12.628Z,100355.38
2023-05-09T02:12:13.987Z,100342.25
2023-05-09T02:17:16.938Z,100338.19
2023-05-09T02:22:18.292Z,100342.38
2023-05-09T02:27:21.435Z,100337.50
2023-05-09T02:32:26.928Z,100348.91
2023-05-09T02:37:28.851Z,100345.41
2023-05-09T02:42:30.423Z,100335.47
2023-05-09T02:47:31.912Z,100326.38
2023-05-09T02:52:33.289Z,100332.41
2023-05-09T02:57:34.533Z,100316.78
2023-05-09T03:02:36.980Z,100315.59
2023-05-09T03:07:38.376Z,100313.75
2023-05-09T03:12:40.211Z,100322.16
2023-05-09T03:17:41.699Z,100312.59
2023-05-09T03:22:43.052Z,100319.13
2023-05-09T03:27:44.334Z,100303.16
2023-05-09T03:32:45.722Z,100299.47
2023-05-09T03:37:47.124Z,100304.84
2023-05-09T03:42:48.454Z,100288.22
2023-05-09T03:47:49.917Z,100297.44
2023-05-09T03:52:51.327Z,100299.47
2023-05-09T03:57:52.681Z,100295.59
2023-05-09T04:02:54.057Z,100292.72
2023-05-09T04:07:55.520Z,100276.94
2023-05-09T04:12:56.956Z,100276.94
2023-05-09T04:17:58.331Z,100278.97
2023-05-09T04:22:59.993Z,100288.56
2023-05-09T04:28:01.625Z,100292.72
2023-05-09T04:33:03.141Z,100294.44
2023-05-09T04:38:04.865Z,100295.41
2023-05-09T04:43:06.306Z,100278.63
2023-05-09T04:48:07.853Z,100289.56
2023-05-09T04:53:09.382Z,100277.97
2023-05-09T04:58:10.783Z,100272.59
2023-05-09T05:03:12.807Z,100261.84
2023-05-09T05:08:14.176Z,100251.06
2023-05-09T05:13:16.196Z,100254.09
2023-05-09T05:18:17.906Z,100250.06
2023-05-09T05:23:19.401Z,100249.41
2023-05-09T05:28:20.868Z,100253.63
2023-05-09T05:33:22.156Z,100249.06
2023-05-09T05:38:23.577Z,100254.31
2023-05-09T05:43:24.904Z,100240.34
2023-05-09T05:48:26.603Z,100241.72
2023-05-09T05:53:28.063Z,100237.47
2023-05-09T05:58:29.413Z,100244.22
2023-05-09T06:03:30.852Z,100237.97
2023-05-09T06:08:32.437Z,100232.09
2023-05-09T06:13:33.807Z,100230.56
2023-05-09T06:18:37.592Z,100230.88
2023-05-09T06:23:42.643Z,100228.28
2023-05-09T06:28:52.171Z,100220.66
2023-05-09T06:33:53.505Z,100221.47
2023-05-09T06:38:54.813Z,100211.22
2023-05-09T06:43:56.181Z,100203.13
2023-05-09T06:48:57.601Z,100199.75
2023-05-09T06:53:58.990Z,100188.25
2023-05-09T06:59:00.436Z,100189.25
2023-05-09T07:04:01.750Z,100180.16
2023-05-09T07:09:04.228Z,100179.44
2023-05-09T07:14:05.862Z,100177.34
2023-05-09T07:19:07.205Z,100175.00
2023-05-09T07:24:08.691Z,100171.63
2023-05-09T07:29:10.137Z,100150.13
2023-05-09T07:34:11.907Z,100150.53
2023-05-09T07:39:13.251Z,100133.69
2023-05-09T07:44:14.605Z,100140.22
2023-05-09T07:49:15.931Z,100134.03
2023-05-09T07:54:17.411Z,100125.41
2023-05-09T07:59:19.279Z,100100.47
2023-05-09T08:04:20.740Z,100112.22
2023-05-09T08:09:22.321Z,100113.50
2023-05-09T08:14:24.043Z,100106.63
2023-05-09T08:19:26.363Z,100107.44
2023-05-09T08:24:27.855Z,100099.41
2023-05-09T08:29:29.735Z,100091.00
2023-05-09T08:34:34.384Z,100089.81
2023-05-09T08:39:35.920Z,100093.31
2023-05-09T08:44:37.305Z,100079.56
2023-05-09T08:49:40.010Z,100065.34
2023-05-09T08:54:41.605Z,100064.78
2023-05-09T08:59:43.516Z,100059.94
2023-05-09T09:04:45.190Z,100055.59
2023-05-09T09:09:48.728Z,100053.19
2023-05-09T09:14:55.010Z,100045.09
2023-05-09T09:20:00.658Z,100043.06
2023-05-09T09:25:03.934Z,100036.25
2023-05-09T09:30:09.978Z,100044.72
2023-05-09T09:35:11.907Z,100022.00
2023-05-09T09:40:14.461Z,100024.50
2023-05-09T09:45:19.016Z,100022.94
2023-05-09T09:50:23.152Z,100019.13
2023-05-09T09:55:24.908Z,100006.56
2023-05-09T10:00:27.940Z,99995.88
2023-05-09T10:05:30.815Z,99997.91
2023-05-09T10:10:34.239Z,99986.94
2023-05-09T10:15:49.286Z,99976.88
2023-05-09T10:20:54.908Z,99975.88
2023-05-09T10:26:23.506Z,99967.31
2023-05-09T10:31:31.468Z,99968.53
2023-05-09T10:36:33.067Z,99957.81
2023-05-09T10:41:36.911Z,99941.97
2023-05-09T10:46:38.988Z,99937.34
2023-05-09T10:51:40.500Z,99923.38
2023-05-09T10:56:42.045Z,99910.28
2023-05-09T11:01:43.384Z,99892.91
2023-05-09T11:06:51.131Z,99888.19
2023-05-09T11:11:57.532Z,99890.75
2023-05-09T11:17:00.729Z,99896.75
2023-05-09T11:22:10.978Z,99895.22
2023-05-09T11:27:49.669Z,99870.59
2023-05-09T11:32:55.930Z,99867.19
2023-05-09T11:38:02.088Z,99860.72
2023-05-09T11:43:03.457Z,99849.06
2023-05-09T11:48:09.154Z,99833.06
2023-05-09T11:53:12.327Z,99832.00
2023-05-09T11:58:13.838Z,99828.19
2023-05-09T12:03:15.348Z,99808.66
2023-05-09T12:08:16.759Z,99803.75
2023-05-09T12:13:19.290Z,99808.03
2023-05-09T12:18:20.763Z,99795.97
2023-05-09T12:23:23.345Z,99785.16
2023-05-09T12:28:26.428Z,99780.13
2023-05-09T12:33:28.238Z,99772.03
2023-05-09T12:38:29.613Z,99754.41
2023-05-09T12:43:36.059Z,99751.09
2023-05-09T12:48:38.613Z,99748.81
2023-05-09T12:53:41.499Z,99735.06
2023-05-09T12:58:51.626Z,99721.97
2023-05-09T13:04:02.265Z,99713.31
2023-05-09T13:09:06.002Z,99708.09
2023-05-09T13:14:08.324Z,99700.78
2023-05-09T13:19:10.253Z,99686.22
2023-05-09T13:24:11.614Z,99674.63
2023-05-09T13:29:13.007Z,99663.56
2023-05-09T13:34:14.344Z,99651.63
2023-05-09T13:39:16.523Z,99653.31
2023-05-09T13:44:18.178Z,99642.50
2023-05-09T13:49:20.048Z,99635.34
2023-05-09T13:54:22.862Z,99628.47
2023-05-09T13:59:24.302Z,99622.91
2023-05-09T14:04:31.747Z,99622.44
2023-05-09T14:09:38.085Z,99617.88
2023-05-09T14:14:39.446Z,99604.16
2023-05-09T14:19:40.800Z,99595.44
2023-05-09T14:24:42.220Z,99591.00
2023-05-09T14:29:44.074Z,99582.88
2023-05-09T14:34:45.811Z,99581.06
2023-05-09T14:39:47.563Z,99563.44
2023-05-09T14:44:48.920Z,99555.56
2023-05-09T14:49:50.203Z,99532.31
2023-05-09T14:54:51.556Z,99529.78
2023-05-09T14:59:53.006Z,99525.56
2023-05-09T15:04:55.869Z,99528.78
2023-05-09T15:09:57.492Z,99523.72
2023-05-09T15:15:12.724Z,99515.28
2023-05-09T15:20:15.430Z,99502.09
2023-05-09T15:25:17.264Z,99503.72
2023-05-09T15:30:18.706Z,99512.06
2023-05-09T15:35:20.181Z,99529.75
2023-05-09T15:40:21.812Z,99515.84
2023-05-09T15:45:23.176Z,99535.19
2023-05-09T15:50:24.530Z,99532.63
2023-05-09T15:55:28.530Z,99509.53
2023-05-09T16:00:30.112Z,99489.59
2023-05-09T16:05:31.518Z,99471.28
2023-05-09T16:10:32.980Z,99462.16
2023-05-09T16:15:34.973Z,99450.56
2023-05-09T16:20:36.820Z,99435.59
2023-05-09T16:25:38.266Z,99441.91
2023-05-09T16:30:39.955Z,99428.38
2023-05-09T16:35:41.402Z,99419.00
2023-05-09T16:40:42.753Z,99419.25
2023-05-09T16:45:44.291Z,99418.41
2023-05-09T16:50:46.606Z,99414.09
2023-05-09T16:55:48.403Z,99402.22
2023-05-09T17:00:50.658Z,99402.06
2023-05-09T17:05:51.993Z,99417.44
2023-05-09T17:10:53.640Z,99425.97
2023-05-09T17:15:54.926Z,99431.66
2023-05-09T17:20:56.626Z,99434.16
2023-05-09T17:25:58.129Z,99430.44
2023-05-09T17:30:59.617Z,99422.56
2023-05-09T17:36:01.471Z,99425.25
2023-05-09T17:41:02.825Z,99409.28
2023-05-09T17:46:04.736Z,99404.69
2023-05-09T17:51:06.127Z,99402.16
2023-05-09T17:56:07.650Z,99403.00
2023-05-09T18:01:09.509Z,99392.22
2023-05-09T18:06:10.866Z,99376.44
2023-05-09T18:11:12.369Z,99370.56
2023-05-09T18:16:13.818Z,99383.00
2023-05-09T18:21:15.218Z,99382.53
2023-05-09T18:26:17.242Z,99401.19
2023-05-09T18:31:18.982Z,99426.88
2023-05-09T18:36:20.582Z,99430.44
2023-05-09T18:41:21.997Z,99420.22
2023-05-09T18:46:23.448Z,99426.91
2023-05-09T18:51:25.600Z,99438.28
2023-05-09T18:56:26.944Z,99441.72
2023-05-09T19:01:28.380Z,99448.94
2023-05-09T19:06:29.801Z,99442.25
2023-05-09T19:11:31.554Z,99440.91
2023-05-09T19:16:32.945Z,99429.44
2023-05-09T19:21:35.509Z,99430.44
2023-05-09T19:26:36.869Z,99427.88
2023-05-09T19:31:38.208Z,99435.66
2023-05-09T19:36:39.689Z,99443.00
2023-05-09T19:41:41.345Z,99439.13
2023-05-09T19:46:43.066Z,99433.88
2023-05-09T19:51:44.498Z,99447.59
2023-05-09T19:56:45.819Z,99457.63
2023-05-09T20:01:47.188Z,99451.38
2023-05-09T20:06:49.017Z,99446.06
2023-05-09T20:11:50.593Z,99445.22
2023-05-09T20:16:51.937Z,99430.84
2023-05-09T20:21:53.885Z,99430.19
2023-05-09T20:26:55.347Z,99421.50
2023-05-09T20:31:56.982Z,99418.69
2023-05-09T20:36:58.401Z,99418.22
2023-05-09T20:42:02.126Z,99419.44
2023-05-09T20:47:03.528Z,99417.41
2023-05-09T20:52:04.934Z,99420.72
2023-05-09T20:57:06.261Z,99421.50
2023-05-09T21:02:08.237Z,99417.78
2023-05-09T21:07:09.924Z,99401.47
2023-05-09T21:12:11.390Z,99404.94
2023-05-09T21:17:12.892Z,99400.94
2023-05-09T21:22:14.188Z,99400.38
2023-05-09T21:27:15.497Z,99396.38
2023-05-09T21:32:16.936Z,99396.13
2023-05-09T21:37:19.352Z,99400.00
2023-05-09T21:42:22.876Z,99383.25
2023-05-09T21:47:24.423Z,99383.47
2023-05-09T21:52:26.089Z,99390.53
2023-05-09T21:57:27.384Z,99381.34
2023-05-09T22:02:29.352Z,99381.28
2023-05-09T22:07:30.850Z,99378.78
2023-05-09T22:12:32.219Z,99376.34
2023-05-09T22:17:33.550Z,99376.16
2023-05-09T22:22:35.061Z,99380.34
2023-05-09T22:27:36.381Z,99371.63
2023-05-09T22:32:38.414Z,99370.31
2023-05-09T22:37:39.897Z,99359.66
2023-05-09T22:42:41.211Z,99362.81
2023-05-09T22:47:42.580Z,99356.63
2023-05-09T22:52:44.270Z,99363.00
2023-05-09T22:57:45.729Z,99364.31
2023-05-09T23:02:47.225Z,99360.56
2023-05-09T23:07:48.616Z,99352.34
2023-05-09T23:12:50.005Z,99340.50
2023-05-09T23:17:51.319Z,99340.69
2023-05-09T23:22:52.755Z,99354.00
2023-05-09T23:27:54.700Z,99337.63
2023-05-09T23:32:56.247Z,99331.03
2023-05-09T23:37:57.693Z,99333.66
2023-05-09T23:42:59.047Z,99325.78
2023-05-09T23:48:00.680Z,99331.16
2023-05-09T23:53:04.781Z,99344.16
2023-05-09T23:58:06.131Z,99353.19
